createdAt,value
2022-11-15T00:32:36.173Z,13.02
2022-11-15T00:36:06.388Z,14.02
2022-11-15T00:39:29.031Z,14.02
2022-11-15T01:10:06.164Z,19.10
2022-11-15T01:13:38.068Z,11.82
2022-11-15T01:21:39.553Z,11.70
2022-11-15T01:47:47.657Z,17.70
2022-11-15T01:51:12.420Z,17.10
2022-11-15T01:54:34.298Z,17.65
2022-11-15T02:07:33.127Z,11.10
2022-11-15T02:16:02.940Z,5.13
2022-11-15T02:20:17.796Z,3.17
2022-11-15T02:23:54.449Z,3.28
2022-11-15T02:27:33.220Z,3.08
2022-11-15T02:31:46.888Z,2.95
2022-11-15T02:35:34.513Z,3.38
2022-11-15T02:39:42.373Z,2.72
2022-11-15T02:43:31.540Z,2.50
2022-11-15T02:47:19.101Z,2.92
2022-11-15T02:50:41.069Z,3.15
2022-11-15T02:54:30.763Z,2.70
2022-11-15T02:58:11.029Z,3.67
2022-11-15T03:02:30.970Z,2.60
2022-11-15T03:06:22.062Z,5.00
2022-11-15T03:10:18.246Z,2.63
2022-11-15T03:14:01.988Z,1.92
2022-11-15T03:17:44.632Z,1.65
2022-11-15T03:21:18.780Z,1.80
2022-11-15T03:24:44.367Z,2.40
2022-11-15T03:38:23.148Z,3.50
2022-11-15T03:42:40.914Z,3.30
2022-11-15T03:46:48.832Z,2.33
2022-11-15T03:50:29.899Z,2.17
2022-11-15T03:53:59.948Z,3.42
2022-11-15T03:57:34.060Z,2.30
2022-11-15T04:01:05.375Z,3.17
2022-11-15T04:04:59.491Z,3.50
2022-11-15T04:08:35.144Z,2.15
2022-11-15T04:16:29.758Z,3.13
2022-11-15T04:24:44.779Z,2.83
2022-11-15T04:28:27.581Z,3.03
2022-11-15T04:37:16.545Z,2.95
2022-11-15T04:40:40.366Z,2.53
2022-11-15T04:44:16.457Z,2.47
2022-11-15T04:47:38.473Z,4.15
2022-11-15T04:51:32.718Z,3.47
2022-11-15T04:55:18.467Z,4.30
2022-11-15T04:58:46.328Z,5.05
2022-11-15T05:02:12.270Z,4.85
2022-11-15T05:05:40.337Z,4.43
2022-11-15T05:09:08.116Z,4.28
2022-11-15T05:12:32.637Z,0.90
2022-11-15T05:16:00.192Z,2.67
2022-11-15T05:19:30.618Z,1.60
2022-11-15T05:23:04.571Z,1.92
2022-11-15T05:27:20.001Z,2.95
2022-11-15T05:30:42.158Z,2.33
2022-11-15T05:34:07.552Z,2.40
2022-11-15T05:37:30.084Z,3.30
2022-11-15T05:41:07.730Z,2.13
2022-11-15T05:44:35.835Z,2.60
2022-11-15T05:48:08.248Z,2.90
2022-11-15T05:51:31.339Z,2.40
2022-11-15T05:55:17.758Z,3.35
2022-11-15T05:58:39.953Z,2.53
2022-11-15T06:02:59.674Z,3.22
2022-11-15T06:06:24.967Z,1.50
2022-11-15T06:10:12.692Z,1.92
2022-11-15T06:13:40.856Z,2.40
2022-11-15T06:20:50.302Z,4.35
2022-11-15T06:24:12.111Z,2.65
2022-11-15T06:27:37.929Z,4.10
2022-11-15T06:31:05.563Z,4.45
2022-11-15T06:34:37.431Z,5.47
2022-11-15T06:38:30.475Z,3.30
2022-11-15T06:41:52.140Z,5.53
2022-11-15T06:45:13.699Z,5.25
2022-11-15T06:48:35.822Z,5.00
2022-11-15T06:51:59.811Z,3.78
2022-11-15T06:55:39.512Z,2.90
2022-11-15T06:59:01.388Z,3.70
2022-11-15T07:02:51.204Z,4.15
2022-11-15T07:06:16.502Z,3.92
2022-11-15T07:10:42.822Z,4.00
2022-11-15T07:14:10.560Z,4.10
2022-11-15T07:17:32.488Z,4.25
2022-11-15T07:24:58.404Z,4.43
2022-11-15T07:28:23.153Z,4.57
2022-11-15T07:31:52.351Z,3.78
2022-11-15T07:35:56.936Z,3.45
2022-11-15T07:39:24.344Z,2.47
2022-11-15T07:42:54.426Z,3.47
2022-11-15T07:46:19.431Z,4.80
2022-11-15T07:49:44.157Z,5.07
2022-11-15T07:53:07.890Z,3.80
2022-11-15T07:57:06.697Z,3.47
2022-11-15T08:00:47.906Z,4.75
2022-11-15T08:04:13.798Z,4.68
2022-11-15T08:08:06.320Z,4.78
2022-11-15T08:16:23.056Z,5.40
2022-11-15T08:20:16.612Z,6.28
2022-11-15T08:23:48.526Z,7.28
2022-11-15T08:27:18.658Z,7.32
2022-11-15T08:30:56.512Z,7.10
2022-11-15T08:39:14.439Z,6.97
2022-11-15T08:43:37.385Z,5.35
2022-11-15T08:47:23.849Z,6.55
2022-11-15T08:51:31.799Z,6.95
2022-11-15T08:54:53.389Z,8.65
2022-11-15T08:58:15.315Z,14.77
2022-11-15T09:01:54.838Z,9.43
2022-11-15T09:05:20.276Z,9.75
2022-11-15T09:08:47.580Z,12.23
2022-11-15T09:12:05.566Z,10.63
2022-11-15T09:15:26.972Z,10.95
2022-11-15T09:19:34.704Z,10.77
2022-11-15T09:23:29.913Z,10.55
2022-11-15T09:27:04.279Z,11.52
2022-11-15T09:33:35.962Z,10.38
2022-11-15T09:36:57.713Z,9.93
2022-11-15T09:40:27.961Z,11.30
2022-11-15T09:44:25.257Z,13.38
2022-11-15T09:48:32.880Z,12.75
2022-11-15T09:52:02.907Z,14.77
2022-11-15T09:55:16.256Z,16.73
2022-11-15T09:59:04.360Z,14.98
2022-11-15T10:06:11.259Z,16.45
2022-11-15T10:09:44.171Z,19.77
2022-11-15T10:13:00.768Z,19.92
2022-11-15T10:16:29.815Z,21.67
2022-11-15T10:19:54.049Z,21.17
2022-11-15T10:23:08.540Z,23.17
2022-11-15T10:26:17.990Z,21.70
2022-11-15T10:29:28.948Z,20.05
2022-11-15T10:36:31.942Z,22.23
2022-11-15T10:39:35.875Z,17.98
2022-11-15T10:43:15.554Z,18.45
2022-11-15T10:46:50.190Z,15.68
2022-11-15T10:50:08.273Z,16.00
2022-11-15T10:53:26.090Z,10.07
2022-11-15T10:56:29.606Z,11.27
2022-11-15T10:59:55.719Z,9.50
2022-11-15T11:03:37.073Z,8.77
2022-11-15T11:06:58.499Z,9.57
2022-11-15T11:14:29.959Z,11.57
2022-11-15T11:18:11.522Z,11.63
2022-11-15T11:21:38.425Z,11.63
2022-11-15T11:25:01.145Z,14.32
2022-11-15T11:29:06.762Z,12.25
2022-11-15T11:33:11.711Z,13.13
2022-11-15T11:36:33.646Z,15.43
2022-11-15T11:39:37.502Z,11.77
2022-11-15T11:43:09.029Z,12.90
2022-11-15T11:46:40.096Z,10.32
2022-11-15T11:50:15.214Z,9.63
2022-11-15T11:53:51.761Z,8.75
2022-11-15T11:57:05.045Z,9.10
2022-11-15T12:00:25.814Z,8.77
2022-11-15T12:03:54.744Z,8.00
2022-11-15T12:07:31.358Z,9.00
2022-11-15T12:10:36.915Z,8.07
2022-11-15T12:13:45.268Z,8.73
2022-11-15T12:16:50.975Z,10.48
2022-11-15T12:20:03.392Z,12.55
2022-11-15T12:23:26.421Z,13.63
2022-11-15T12:26:59.085Z,12.50
2022-11-15T12:30:24.579Z,12.20
2022-11-15T12:33:33.932Z,11.35
2022-11-15T12:36:46.210Z,11.52
2022-11-15T12:40:24.501Z,10.85
2022-11-15T12:43:55.409Z,11.98
2022-11-15T12:46:58.506Z,10.43
2022-11-15T12:50:38.664Z,10.25
2022-11-15T12:53:44.751Z,11.30
2022-11-15T12:57:08.401Z,11.90
2022-11-15T13:00:16.306Z,12.25
2022-11-15T13:03:26.985Z,13.60
2022-11-15T13:06:44.866Z,16.52
2022-11-15T13:10:15.644Z,17.83
2022-11-15T13:13:46.974Z,15.68
2022-11-15T13:17:31.383Z,17.00
2022-11-15T13:20:47.149Z,15.27
2022-11-15T13:23:55.033Z,12.30
2022-11-15T13:27:00.530Z,13.85
2022-11-15T13:30:06.037Z,15.90
2022-11-15T13:33:24.462Z,13.98
2022-11-15T13:36:39.715Z,13.13
2022-11-15T13:39:42.960Z,10.00
2022-11-15T13:42:46.236Z,12.82
2022-11-15T13:46:15.797Z,14.63
2022-11-15T13:49:31.924Z,17.17
2022-11-15T13:52:50.465Z,16.48
2022-11-15T13:56:01.311Z,13.10
2022-11-15T13:59:32.890Z,12.02
2022-11-15T14:02:38.021Z,12.23
2022-11-15T14:05:41.533Z,12.52
2022-11-15T14:09:10.878Z,12.32
2022-11-15T14:12:30.757Z,12.13
2022-11-15T14:15:40.876Z,11.30
2022-11-15T14:18:47.962Z,9.68
2022-11-15T14:22:12.428Z,8.13
2022-11-15T14:25:46.646Z,9.50
2022-11-15T14:28:52.801Z,16.23
2022-11-15T14:32:23.779Z,18.08
2022-11-15T14:35:27.194Z,21.35
2022-11-15T14:38:30.781Z,15.85
2022-11-15T14:41:41.198Z,12.80
2022-11-15T14:44:46.095Z,12.00
2022-11-15T14:47:50.112Z,12.32
2022-11-15T14:50:53.436Z,11.95
2022-11-15T14:53:56.933Z,11.05
2022-11-15T14:57:00.125Z,10.30
2022-11-15T15:00:04.619Z,8.23
2022-11-15T15:03:17.020Z,6.82
2022-11-15T15:06:20.622Z,7.15
2022-11-15T15:09:23.837Z,9.65
2022-11-15T15:12:27.158Z,10.23
2022-11-15T15:15:38.807Z,8.15
2022-11-15T15:18:41.943Z,8.50
2022-11-15T15:21:45.040Z,7.32
2022-11-15T15:24:48.435Z,7.88
2022-11-15T15:27:51.909Z,9.65
2022-11-15T15:30:55.024Z,14.20
2022-11-15T15:33:58.125Z,18.00
2022-11-15T15:37:19.589Z,25.73
2022-11-15T15:40:24.493Z,29.02
2022-11-15T15:43:27.572Z,30.48
2022-11-15T15:46:30.799Z,38.17
2022-11-15T15:49:33.895Z,36.28
2022-11-15T15:52:37.031Z,35.80
2022-11-15T15:55:40.972Z,32.63
2022-11-15T15:58:44.106Z,28.17
2022-11-15T16:01:47.460Z,28.73
2022-11-15T16:04:51.915Z,25.67
2022-11-15T16:07:56.262Z,26.55
2022-11-15T16:14:01.872Z,25.48
2022-11-15T16:17:06.010Z,24.73
2022-11-15T16:20:26.246Z,30.98
2022-11-15T16:23:30.316Z,28.98
2022-11-15T16:26:37.038Z,17.13
2022-11-15T16:29:40.825Z,11.98
2022-11-15T16:39:06.073Z,10.20
2022-11-15T16:42:09.338Z,9.80
2022-11-15T16:45:16.312Z,11.15
2022-11-15T16:48:28.188Z,11.77
2022-11-15T16:51:31.532Z,13.23
2022-11-15T16:54:34.923Z,13.38
2022-11-15T16:57:38.461Z,14.40
2022-11-15T17:00:41.852Z,15.88
2022-11-15T17:03:45.090Z,23.10
2022-11-15T17:06:50.333Z,30.98
2022-11-15T17:09:54.017Z,29.17
2022-11-15T17:12:57.761Z,27.20
2022-11-15T17:16:06.942Z,25.58
2022-11-15T17:19:15.778Z,24.38
2022-11-15T17:22:19.070Z,26.73
2022-11-15T17:25:22.453Z,24.55
2022-11-15T17:28:27.729Z,24.13
2022-11-15T17:31:34.844Z,23.75
2022-11-15T17:34:38.137Z,24.35
2022-11-15T17:37:41.448Z,33.83
2022-11-15T17:40:44.841Z,38.55
2022-11-15T17:43:48.966Z,34.70
2022-11-15T17:46:53.678Z,39.95
2022-11-15T17:49:57.026Z,41.33
2022-11-15T17:53:01.250Z,41.90
2022-11-15T17:56:12.070Z,45.90
2022-11-15T17:59:20.173Z,44.47
2022-11-15T18:02:24.852Z,47.05
2022-11-15T18:05:28.549Z,50.55
2022-11-15T18:08:31.748Z,46.03
2022-11-15T18:11:41.808Z,58.05
2022-11-15T18:14:44.971Z,57.30
2022-11-15T18:17:48.475Z,52.92
2022-11-15T18:20:51.559Z,49.70
2022-11-15T18:23:57.319Z,54.30
2022-11-15T18:27:03.716Z,51.20
2022-11-15T18:30:07.835Z,53.60
2022-11-15T18:33:10.906Z,47.58
2022-11-15T18:36:16.561Z,46.63
2022-11-15T18:39:20.412Z,45.35
2022-11-15T18:42:23.682Z,45.80
2022-11-15T18:45:26.905Z,43.80
2022-11-15T18:48:37.555Z,42.80
2022-11-15T18:51:42.493Z,39.17
2022-11-15T18:54:45.633Z,35.22
2022-11-15T18:57:49.652Z,29.83
2022-11-15T19:01:01.838Z,23.85
2022-11-15T19:04:13.960Z,23.13
2022-11-15T19:07:17.054Z,26.38
2022-11-15T19:10:20.280Z,26.38
2022-11-15T19:13:24.707Z,26.73
2022-11-15T19:16:29.749Z,29.60
2022-11-15T19:19:33.588Z,29.23
2022-11-15T19:22:36.869Z,29.65
2022-11-15T19:25:39.958Z,31.95
2022-11-15T19:28:44.069Z,29.33
2022-11-15T19:31:49.238Z,30.30
2022-11-15T19:34:52.438Z,28.23
2022-11-15T19:37:55.719Z,18.50
2022-11-15T19:41:03.612Z,14.85
2022-11-15T19:44:07.620Z,15.85
2022-11-15T19:47:12.125Z,13.55
2022-11-15T19:50:15.384Z,12.63
2022-11-15T19:53:19.153Z,10.85
2022-11-15T19:56:23.006Z,12.20
2022-11-15T19:59:26.160Z,12.40
2022-11-15T20:02:29.285Z,11.13
2022-11-15T20:05:32.599Z,10.43
2022-11-15T20:08:37.020Z,10.98
2022-11-15T20:11:40.477Z,9.32
2022-11-15T20:14:43.759Z,9.10
2022-11-15T20:17:47.055Z,7.75
2022-11-15T20:20:50.526Z,11.23
2022-11-15T20:23:53.961Z,14.85
2022-11-15T20:26:57.950Z,16.35
2022-11-15T20:30:01.231Z,17.85
2022-11-15T20:33:04.422Z,19.13
2022-11-15T20:36:11.561Z,20.58
2022-11-15T20:39:14.745Z,23.25
2022-11-15T20:42:17.897Z,24.30
2022-11-15T20:45:21.178Z,25.02
2022-11-15T20:48:26.904Z,27.02
2022-11-15T20:51:30.040Z,33.15
2022-11-15T20:54:33.296Z,35.10
2022-11-15T20:57:36.447Z,37.35
2022-11-15T21:00:39.583Z,37.95
2022-11-15T21:03:42.978Z,37.67
2022-11-15T21:06:48.743Z,30.38
2022-11-15T21:10:10.396Z,29.92
2022-11-15T21:13:13.777Z,30.92
2022-11-15T21:16:18.227Z,29.33
2022-11-15T21:19:27.811Z,22.88
2022-11-15T21:22:34.347Z,17.35
2022-11-15T21:25:37.621Z,15.32
2022-11-15T21:28:40.835Z,15.30
2022-11-15T21:31:47.829Z,19.15
2022-11-15T21:34:51.027Z,17.33
2022-11-15T21:37:56.975Z,16.50
2022-11-15T21:41:04.566Z,18.70
2022-11-15T21:44:07.769Z,20.63
2022-11-15T21:47:10.913Z,19.55
2022-11-15T21:50:14.187Z,18.23
2022-11-15T21:53:17.254Z,14.85
2022-11-15T21:56:20.368Z,17.10
2022-11-15T21:59:23.758Z,13.43
2022-11-15T22:02:26.973Z,11.60
2022-11-15T22:05:30.154Z,12.60
2022-11-15T22:08:33.850Z,11.68
2022-11-15T22:11:37.640Z,11.30
2022-11-15T22:14:40.795Z,12.05
2022-11-15T22:17:58.904Z,11.82
2022-11-15T22:21:04.885Z,11.65
2022-11-15T22:24:08.942Z,12.15
2022-11-15T22:27:12.164Z,12.02
2022-11-15T22:30:15.565Z,11.90
2022-11-15T22:33:20.492Z,12.27
2022-11-15T22:36:28.418Z,11.50
2022-11-15T22:39:36.504Z,14.10
2022-11-15T22:42:39.707Z,14.38
2022-11-15T22:46:09.213Z,19.70
2022-11-15T22:49:12.428Z,19.13
2022-11-15T22:52:15.678Z,20.25
2022-11-15T22:55:19.208Z,17.98
2022-11-15T22:58:24.619Z,18.55
2022-11-15T23:01:27.869Z,17.60
2022-11-15T23:04:31.310Z,17.17
2022-11-15T23:07:35.129Z,16.02
2022-11-15T23:10:58.467Z,14.93
2022-11-15T23:14:02.037Z,19.52
2022-11-15T23:17:05.247Z,22.10
2022-11-15T23:20:29.411Z,16.88
2022-11-15T23:23:32.504Z,13.85
2022-11-15T23:26:35.892Z,15.38
2022-11-15T23:29:59.283Z,14.32
2022-11-15T23:33:21.487Z,11.55
2022-11-15T23:36:26.418Z,11.60
2022-11-15T23:39:29.927Z,13.77
2022-11-15T23:42:35.613Z,12.73
2022-11-15T23:45:39.041Z,15.27
2022-11-15T23:48:42.306Z,15.43
2022-11-15T23:51:45.823Z,14.35
2022-11-15T23:54:49.124Z,15.25
2022-11-15T23:57:52.302Z,13.40
